Time;durP1;ratioP1;P1;durP2;ratioP2;P2;SDS_P1;SDS_P2;PMS_P1;PMS_P2;Temp;Humidity;BMP_temperature;BMP_pressure;BME280_temperature;BME280_humidity;BME280_pressure;Samples;Min_cycle;Max_cycle;Signal;HPM_P1;HPM_P2
2022/05/17 00:02:05;;;;;;;10.65;9.55;;;;;;;15.43;85.99;101136.44;6154869;23;20077;-71
2022/05/17 00:05:10;;;;;;;14.38;9.68;;;;;;;15.45;85.92;101131.91;6154992;23;20459;-71
2022/05/17 00:08:15;;;;;;;20.00;9.57;;;;;;;15.36;85.93;101127.22;6154827;23;20084;-70
2022/05/17 00:11:18;;;;;;;12.20;9.13;;;;;;;15.40;85.58;101128.72;6154751;23;20028;-71
2022/05/17 00:14:22;;;;;;;12.35;9.05;;;;;;;15.34;85.47;101121.19;6154233;23;20081;-71
2022/05/17 00:17:26;;;;;;;14.15;9.60;;;;;;;15.41;85.25;101116.38;6154748;23;20028;-71
2022/05/17 00:20:30;;;;;;;11.70;8.93;;;;;;;15.29;85.35;101118.03;6154544;23;20025;-71
2022/05/17 00:23:36;;;;;;;12.35;8.48;;;;;;;15.28;85.46;101114.53;6154582;23;20028;-71
2022/05/17 00:26:40;;;;;;;17.40;8.90;;;;;;;15.27;85.71;101125.16;6154888;23;20463;-71
2022/05/17 00:29:44;;;;;;;12.95;8.75;;;;;;;15.18;86.08;101123.09;6153910;23;20083;-71
2022/05/17 00:32:48;;;;;;;13.25;8.80;;;;;;;15.21;85.82;101121.13;6154729;23;20025;-70
2022/05/17 00:35:53;;;;;;;14.90;10.63;;;;;;;15.19;85.88;101122.16;6154709;23;20071;-71
2022/05/17 00:38:57;;;;;;;14.25;9.68;;;;;;;15.15;86.13;101126.75;6152508;23;20076;-71
2022/05/17 00:42:00;;;;;;;20.25;10.68;;;;;;;15.21;85.71;101126.38;6153535;23;20091;-71
2022/05/17 00:45:07;;;;;;;11.95;9.23;;;;;;;15.24;85.73;101123.56;6154656;23;20024;-71
2022/05/17 00:48:11;;;;;;;15.43;10.85;;;;;;;15.22;85.51;101132.50;6154658;23;20076;-71
2022/05/17 00:51:16;;;;;;;11.15;9.68;;;;;;;15.15;86.04;101128.56;6154726;23;20393;-71
2022/05/17 00:54:19;;;;;;;16.33;10.45;;;;;;;15.15;85.96;101132.03;6155506;23;20028;-71
2022/05/17 00:57:32;;;;;;;20.35;10.75;;;;;;;15.09;86.10;101128.00;6156607;23;20076;-71
2022/05/17 01:00:46;;;;;;;12.70;9.07;;;;;;;15.01;86.38;101132.88;6156749;23;20037;-71
2022/05/17 01:03:58;;;;;;;17.98;11.02;;;;;;;15.01;86.26;101134.69;6156673;23;20028;-71
2022/05/17 01:07:09;;;;;;;11.98;9.32;;;;;;;14.89;86.44;101136.25;6156409;23;20084;-71
2022/05/17 01:10:13;;;;;;;14.25;8.95;;;;;;;15.03;85.78;101132.81;6156587;23;20084;-70
2022/05/17 01:16:40;;;;;;;12.57;9.52;;;;;;;14.93;85.38;101129.84;6155176;23;20025;-71
2022/05/17 01:19:45;;;;;;;11.60;8.65;;;;;;;15.10;84.53;101129.69;6155099;23;20100;-71
2022/05/17 01:22:48;;;;;;;11.40;9.13;;;;;;;14.91;85.30;101126.50;6153788;23;20111;-71
2022/05/17 01:25:52;;;;;;;15.68;10.10;;;;;;;14.83;85.42;101139.25;6154915;23;20025;-71
2022/05/17 01:28:56;;;;;;;14.88;10.88;;;;;;;14.74;86.07;101131.91;6154366;23;20039;-71
2022/05/17 01:32:00;;;;;;;13.50;10.75;;;;;;;14.73;86.21;101132.84;6137355;23;20024;-71
2022/05/17 01:35:04;;;;;;;12.70;10.02;;;;;;;14.70;86.39;101133.03;6154195;23;20105;-71
2022/05/17 01:38:08;;;;;;;22.80;10.27;;;;;;;14.74;85.84;101139.81;6155203;23;20032;-71
2022/05/17 01:41:12;;;;;;;10.60;9.50;;;;;;;14.68;86.38;101140.19;6137028;23;20578;-71
2022/05/17 01:44:16;;;;;;;15.55;10.30;;;;;;;14.63;86.42;101137.81;6155936;23;20019;-70
2022/05/17 01:47:20;;;;;;;10.93;9.75;;;;;;;14.59;86.90;101137.16;6155626;23;20068;-71
2022/05/17 01:50:24;;;;;;;13.40;9.25;;;;;;;14.64;86.53;101139.50;6155100;23;20068;-71
2022/05/17 01:53:27;;;;;;;14.90;9.93;;;;;;;14.61;86.60;101135.31;6154518;23;20091;-71
2022/05/17 01:56:33;;;;;;;11.32;9.05;;;;;;;14.62;86.81;101129.09;6154795;23;20465;-71
2022/05/17 01:59:37;;;;;;;13.32;9.35;;;;;;;14.57;87.24;101133.78;6154861;23;20096;-71
2022/05/17 02:02:41;;;;;;;16.38;9.45;;;;;;;14.59;87.13;101136.31;6155430;23;20024;-72
2022/05/17 02:05:45;;;;;;;10.68;9.60;;;;;;;14.52;87.05;101133.22;6153924;23;20453;-72
2022/05/17 02:08:49;;;;;;;13.48;8.60;;;;;;;14.54;86.78;101133.09;6155195;23;20072;-72
2022/05/17 02:11:54;;;;;;;17.42;10.18;;;;;;;14.51;86.69;101136.75;6153476;23;20075;-71
2022/05/17 02:14:57;;;;;;;11.43;9.80;;;;;;;14.56;86.50;101142.63;6154798;23;20080;-71
2022/05/17 02:18:02;;;;;;;15.23;8.85;;;;;;;14.66;85.88;101137.66;6154888;23;20029;-72
2022/05/17 02:21:05;;;;;;;12.20;9.77;;;;;;;14.61;85.81;101137.94;6153798;23;20342;-72
2022/05/17 02:24:09;;;;;;;12.18;9.70;;;;;;;14.59;86.01;101134.53;6154542;23;20100;-72
2022/05/17 02:27:13;;;;;;;15.20;10.68;;;;;;;14.56;85.81;101142.63;6153710;23;20060;-71
2022/05/17 02:30:17;;;;;;;15.40;9.63;;;;;;;14.43;86.09;101138.97;6154043;23;20060;-72
2022/05/17 02:33:21;;;;;;;12.95;8.98;;;;;;;14.49;85.47;101143.03;6155750;23;20028;-72
2022/05/17 02:36:25;;;;;;;12.68;9.88;;;;;;;14.49;85.69;101150.94;6153689;23;20027;-72
2022/05/17 02:39:30;;;;;;;14.57;9.20;;;;;;;14.31;85.88;101150.22;6154679;23;20031;-71
2022/05/17 02:42:34;;;;;;;14.85;9.52;;;;;;;14.38;85.25;101152.38;6154846;23;20405;-72
2022/05/17 02:45:38;;;;;;;11.88;9.45;;;;;;;14.35;85.77;101151.72;6155413;23;20040;-72
2022/05/17 02:48:42;;;;;;;10.98;9.23;;;;;;;14.33;85.79;101154.47;6152871;23;20043;-72
2022/05/17 02:51:46;;;;;;;12.38;9.77;;;;;;;14.35;85.56;101151.72;6153312;23;20075;-72
2022/05/17 02:54:50;;;;;;;12.77;10.77;;;;;;;14.24;85.77;101154.16;6153740;23;20342;-72
2022/05/17 02:57:54;;;;;;;11.23;10.05;;;;;;;14.23;86.08;101158.56;6155040;23;20028;-72
2022/05/17 03:00:58;;;;;;;9.68;8.70;;;;;;;14.28;85.91;101159.13;6155105;23;20446;-72
2022/05/17 03:04:01;;;;;;;15.60;9.15;;;;;;;14.21;85.76;101159.56;6153192;23;20542;-71
2022/05/17 03:07:05;;;;;;;12.80;10.43;;;;;;;14.18;85.86;101171.13;6153283;23;20385;-72
2022/05/17 03:10:11;;;;;;;11.55;10.25;;;;;;;14.07;85.97;101173.50;6153445;23;20029;-72
2022/05/17 03:13:15;;;;;;;13.45;10.07;;;;;;;14.01;85.76;101158.06;6153926;23;20091;-71
2022/05/17 03:16:19;;;;;;;16.23;9.70;;;;;;;14.03;85.67;101172.81;6152765;23;20029;-72
2022/05/17 03:19:23;;;;;;;10.40;8.45;;;;;;;14.05;85.43;101168.34;6149474;23;20087;-72
2022/05/17 03:22:27;;;;;;;9.27;7.57;;;;;;;14.12;85.25;101182.81;6150085;23;20079;-72
2022/05/17 03:25:31;;;;;;;12.85;8.43;;;;;;;14.13;85.00;101174.00;6147563;23;20027;-72
2022/05/17 03:28:35;;;;;;;11.45;8.77;;;;;;;14.11;85.02;101183.75;6149527;23;20101;-72
2022/05/17 03:31:39;;;;;;;11.98;9.20;;;;;;;14.12;85.10;101184.59;6147820;23;20059;-72
2022/05/17 03:34:43;;;;;;;17.40;10.55;;;;;;;14.16;85.28;101189.59;6149161;23;20413;-72
2022/05/17 03:37:48;;;;;;;10.60;8.70;;;;;;;14.15;85.40;101187.91;6148470;23;20357;-72
2022/05/17 03:40:58;;;;;;;15.32;9.60;;;;;;;14.14;85.57;101186.22;6149343;23;20092;-72
2022/05/17 03:44:03;;;;;;;12.85;9.35;;;;;;;14.18;85.16;101186.91;6149401;23;20316;-72
2022/05/17 03:47:08;;;;;;;12.65;8.95;;;;;;;14.15;85.22;101193.16;6149287;23;20036;-72
2022/05/17 03:50:14;;;;;;;15.05;8.68;;;;;;;14.14;85.00;101195.91;6133122;23;20357;-72
2022/05/17 03:53:19;;;;;;;13.57;10.15;;;;;;;14.08;85.20;101196.25;6150160;23;20032;-72
2022/05/17 03:56:23;;;;;;;19.77;9.80;;;;;;;14.04;85.69;101195.56;6149334;23;20111;-72
2022/05/17 03:59:27;;;;;;;11.07;9.57;;;;;;;14.07;85.58;101202.41;6150124;23;20145;-72
2022/05/17 04:02:31;;;;;;;12.93;9.52;;;;;;;14.02;85.77;101200.06;6150390;23;20032;-72
2022/05/17 04:05:35;;;;;;;16.05;10.73;;;;;;;14.06;85.61;101206.00;6149150;23;20028;-72
2022/05/17 04:08:40;;;;;;;10.13;8.65;;;;;;;14.11;85.28;101202.19;6150355;23;20519;-71
2022/05/17 04:11:44;;;;;;;14.18;9.57;;;;;;;14.12;85.50;101203.00;6149896;23;20060;-71
2022/05/17 04:14:48;;;;;;;11.20;10.10;;;;;;;14.15;85.53;101200.22;6150189;23;20032;-71
2022/05/17 04:17:54;;;;;;;13.70;9.85;;;;;;;14.25;85.17;101208.44;6149707;23;20083;-71
2022/05/17 04:21:03;;;;;;;14.63;10.07;;;;;;;14.26;85.18;101204.84;6149475;23;20032;-72
2022/05/17 04:24:09;;;;;;;10.80;8.85;;;;;;;14.34;85.24;101207.91;6149913;23;20136;-72
2022/05/17 04:27:13;;;;;;;13.23;9.00;;;;;;;14.30;85.69;101206.41;6150602;23;20029;-71
2022/05/17 04:30:17;;;;;;;11.20;10.10;;;;;;;14.24;85.41;101206.75;6152345;23;20072;-71
2022/05/17 04:33:23;;;;;;;9.25;8.10;;;;;;;14.22;85.84;101212.06;6135319;23;20028;-72
2022/05/17 04:36:28;;;;;;;5.90;5.18;;;;;;;14.28;84.46;101211.72;6153354;23;20025;-71
2022/05/17 04:39:32;;;;;;;3.92;3.53;;;;;;;13.96;86.08;101213.53;6152317;23;20057;-71
2022/05/17 04:42:37;;;;;;;5.30;3.65;;;;;;;14.05;85.77;101207.78;6133839;23;20454;-71
2022/05/17 04:45:44;;;;;;;7.35;6.50;;;;;;;14.29;84.93;101217.84;6150905;23;20075;-71
2022/05/17 04:48:48;;;;;;;8.00;5.90;;;;;;;14.38;84.59;101220.78;6152329;23;20060;-72
2022/05/17 04:51:52;;;;;;;6.10;4.93;;;;;;;14.16;85.17;101220.31;6151614;23;20027;-71
2022/05/17 04:54:58;;;;;;;8.23;7.15;;;;;;;14.27;85.30;101227.63;6152702;23;20050;-71
2022/05/17 04:58:02;;;;;;;8.52;7.70;;;;;;;14.18;86.03;101224.56;6134175;23;20056;-71
2022/05/17 05:01:06;;;;;;;7.70;6.85;;;;;;;14.21;86.16;101227.97;6153322;23;20032;-71
2022/05/17 05:04:09;;;;;;;6.25;5.65;;;;;;;14.33;85.61;101232.53;6153120;23;20301;-71
2022/05/17 05:07:15;;;;;;;8.68;6.65;;;;;;;14.44;84.99;101238.03;6152007;23;20080;-71
2022/05/17 05:10:21;;;;;;;6.18;5.57;;;;;;;14.44;84.93;101240.66;6149927;23;20036;-71
2022/05/17 05:13:25;;;;;;;7.13;6.43;;;;;;;14.39;85.29;101246.19;6150346;23;20476;-72
2022/05/17 05:16:28;;;;;;;;;;;;;;;14.28;85.25;101243.31;6149890;23;20024;-71
2022/05/17 05:19:31;;;;;;;;;;;;;;;14.29;85.44;101246.78;6149304;23;19919;-72
2022/05/17 05:22:35;;;;;;;6.72;3.85;;;;;;;14.03;86.53;101256.97;6149672;23;19975;-72
2022/05/17 05:25:39;;;;;;;4.35;3.78;;;;;;;14.05;86.69;101254.25;6148495;23;20074;-71
2022/05/17 05:28:45;;;;;;;6.18;3.83;;;;;;;14.29;85.85;101259.94;6149467;23;20040;-72
2022/05/17 05:31:49;;;;;;;6.45;4.28;;;;;;;14.02;86.59;101270.22;6148832;23;20130;-71
2022/05/17 05:34:53;;;;;;;4.47;4.07;;;;;;;14.25;85.91;101271.56;6148337;23;20028;-72
2022/05/17 05:37:57;;;;;;;5.10;3.50;;;;;;;14.30;86.42;101277.44;6147514;23;20033;-71
2022/05/17 05:41:02;;;;;;;6.18;3.83;;;;;;;14.29;86.33;101279.19;6150218;23;20377;-71
2022/05/17 05:44:05;;;;;;;4.25;3.60;;;;;;;14.21;87.73;101275.31;6150881;23;20393;-71
2022/05/17 05:47:09;;;;;;;6.22;4.18;;;;;;;14.17;87.19;101275.47;6151015;23;20076;-71
2022/05/17 05:50:17;;;;;;;7.70;4.53;;;;;;;14.25;87.59;101271.56;6151311;23;20171;-72
2022/05/17 05:53:21;;;;;;;6.38;4.90;;;;;;;14.37;87.00;101271.72;6150867;23;20705;-72
2022/05/17 05:56:25;;;;;;;6.60;4.70;;;;;;;14.63;85.74;101270.28;6150196;23;20028;-72
2022/05/17 05:59:29;;;;;;;5.30;4.03;;;;;;;14.93;84.38;101266.78;6149709;23;20032;-71
2022/05/17 06:02:35;;;;;;;4.50;4.10;;;;;;;15.03;83.90;101281.13;6149912;23;20080;-71
2022/05/17 06:05:39;;;;;;;4.68;3.92;;;;;;;15.05;83.30;101279.25;6150047;23;20021;-71
2022/05/17 06:08:42;;;;;;;4.75;4.32;;;;;;;15.17;83.74;101275.03;6151498;23;20524;-72
2022/05/17 06:11:46;;;;;;;7.35;4.30;;;;;;;15.17;84.02;101275.03;6151109;23;20266;-71
2022/05/17 06:14:49;;;;;;;9.30;5.00;;;;;;;14.97;83.96;101280.66;6150255;23;20024;-71
2022/05/17 06:17:53;;;;;;;5.95;5.35;;;;;;;15.11;84.34;101278.03;6131526;23;20028;-72
2022/05/17 06:21:00;;;;;;;6.47;5.28;;;;;;;15.17;84.38;101271.56;6149411;23;20039;-72
2022/05/17 06:24:04;;;;;;;6.75;6.05;;;;;;;15.00;84.92;101273.41;6150211;23;20469;-72
2022/05/17 06:27:07;;;;;;;9.32;5.13;;;;;;;15.17;84.35;101263.66;6150934;23;20079;-71
2022/05/17 06:30:11;;;;;;;5.47;4.78;;;;;;;15.16;85.04;101265.44;6152434;23;20075;-71
2022/05/17 06:33:16;;;;;;;8.13;5.32;;;;;;;15.26;85.18;101266.59;6151291;23;20095;-71
2022/05/17 06:36:19;;;;;;;6.47;5.68;;;;;;;15.24;85.58;101268.47;6149827;23;20182;-72
2022/05/17 06:39:23;;;;;;;8.07;5.65;;;;;;;15.20;85.82;101264.31;6149772;23;20354;-71
2022/05/17 06:42:30;;;;;;;7.68;5.25;;;;;;;15.28;86.11;101271.75;6154039;23;20101;-71
2022/05/17 06:45:34;;;;;;;8.80;5.85;;;;;;;15.31;85.13;101269.78;6154349;23;20036;-71
2022/05/17 06:48:38;;;;;;;7.03;5.65;;;;;;;15.38;85.11;101269.41;6154886;23;20024;-71
2022/05/17 06:51:42;;;;;;;6.85;6.07;;;;;;;15.33;85.89;101282.88;6155050;23;20030;-71
2022/05/17 06:54:46;;;;;;;7.93;6.13;;;;;;;15.33;86.15;101285.50;6155373;23;20028;-72
2022/05/17 06:57:50;;;;;;;7.03;6.13;;;;;;;15.33;86.00;101281.09;6155515;23;20027;-72
2022/05/17 07:00:55;;;;;;;6.20;5.60;;;;;;;15.52;85.63;101283.44;6155382;23;20024;-73
2022/05/17 07:03:59;;;;;;;8.52;5.10;;;;;;;15.58;84.67;101290.16;6155250;23;20031;-73
2022/05/17 07:07:04;;;;;;;8.02;6.00;;;;;;;15.68;84.79;101278.13;6155926;23;20020;-72
2022/05/17 07:13:33;;;;;;;7.15;5.45;;;;;;;15.88;84.57;101284.78;6155354;23;20028;-72
2022/05/17 07:16:36;;;;;;;8.65;5.63;;;;;;;16.08;84.71;101287.97;6155349;23;20052;-72
2022/05/17 07:19:42;;;;;;;7.38;5.10;;;;;;;16.23;84.32;101290.47;6155335;23;20079;-72
2022/05/17 07:22:46;;;;;;;6.00;5.00;;;;;;;16.23;84.14;101284.34;6155545;23;20072;-72
2022/05/17 07:25:49;;;;;;;7.43;5.18;;;;;;;16.33;83.39;101290.72;6156236;23;20467;-72
2022/05/17 07:28:52;;;;;;;6.32;5.00;;;;;;;16.32;82.17;101288.22;6155492;23;20378;-71
2022/05/17 07:31:56;;;;;;;7.82;5.05;;;;;;;16.26;83.88;101289.44;6155005;23;20031;-71
2022/05/17 07:35:00;;;;;;;7.60;5.25;;;;;;;16.25;86.16;101300.94;6155164;23;20024;-71
2022/05/17 07:38:06;;;;;;;6.45;5.78;;;;;;;16.33;85.71;101292.53;6154794;23;20354;-71
2022/05/17 07:41:09;;;;;;;5.70;4.72;;;;;;;16.36;85.13;101298.47;6155139;23;20075;-71
2022/05/17 07:44:13;;;;;;;8.75;5.57;;;;;;;16.33;85.99;101290.72;6154945;23;20105;-71
2022/05/17 07:47:17;;;;;;;5.53;4.85;;;;;;;16.40;85.25;101291.19;6155148;23;20084;-71
2022/05/17 07:50:21;;;;;;;6.75;5.75;;;;;;;16.27;86.49;101291.13;6154084;23;20029;-72
2022/05/17 07:53:25;;;;;;;6.10;4.97;;;;;;;16.39;85.16;101295.63;6136843;23;20137;-71
2022/05/17 07:56:29;;;;;;;6.57;5.07;;;;;;;16.56;84.61;101281.34;6154042;23;20055;-72
2022/05/17 07:59:34;;;;;;;6.78;4.88;;;;;;;16.65;85.14;101278.06;6154259;23;20032;-73
2022/05/17 08:02:38;;;;;;;7.45;4.75;;;;;;;16.76;85.25;101282.72;6154715;23;20027;-71
2022/05/17 08:05:43;;;;;;;6.65;4.47;;;;;;;16.85;84.94;101271.53;6155053;23;20019;-72
2022/05/17 08:08:47;;;;;;;6.72;4.22;;;;;;;16.63;85.20;101277.34;6154137;23;20028;-72
2022/05/17 08:11:51;;;;;;;7.40;4.90;;;;;;;16.74;86.79;101284.56;6154798;23;20029;-72
2022/05/17 08:14:57;;;;;;;11.93;4.75;;;;;;;16.91;86.95;101279.06;6154595;23;20105;-72
2022/05/17 08:18:07;;;;;;;7.82;4.18;;;;;;;17.04;85.88;101268.50;6153796;23;20080;-72
2022/05/17 08:21:11;;;;;;;5.97;3.90;;;;;;;17.23;85.01;101276.03;6154717;23;20028;-72
2022/05/17 08:24:15;;;;;;;7.63;4.15;;;;;;;17.31;85.15;101271.06;6155068;23;20071;-72
2022/05/17 08:27:36;;;;;;;10.35;3.83;;;;;;;17.34;83.99;101267.34;6154630;23;20358;-72
2022/05/17 08:30:41;;;;;;;7.53;3.70;;;;;;;17.57;83.91;101261.31;6154652;23;20024;-72
2022/05/17 08:33:44;;;;;;;5.35;3.42;;;;;;;17.77;84.17;101256.44;6154905;23;20464;-72
2022/05/17 08:36:48;;;;;;;4.80;3.63;;;;;;;17.93;84.22;101256.19;6136637;23;20044;-72
2022/05/17 08:39:53;;;;;;;7.90;3.47;;;;;;;18.00;82.51;101254.81;6136760;23;20060;-72
2022/05/17 08:43:03;;;;;;;8.90;3.58;;;;;;;18.17;83.23;101251.78;6154280;23;20072;-72
2022/05/17 08:46:13;;;;;;;5.68;3.25;;;;;;;18.28;83.19;101246.56;6154714;23;20550;-72
2022/05/17 08:49:27;;;;;;;12.20;3.53;;;;;;;18.46;82.89;101251.47;6154778;23;20024;-72
2022/05/17 08:52:32;;;;;;;9.20;3.70;;;;;;;18.63;81.37;101243.09;6154518;23;20028;-72
2022/05/17 08:55:40;;;;;;;10.52;4.47;;;;;;;18.67;79.64;101241.94;6148820;23;20503;-72
2022/05/17 08:58:47;;;;;;;5.50;3.38;;;;;;;18.81;78.48;101241.75;6149144;23;20367;-72
2022/05/17 09:02:00;;;;;;;9.68;4.38;;;;;;;18.86;76.62;101233.47;6147911;23;20040;-73
2022/05/17 09:05:26;;;;;;;;;;;;;;;19.03;75.25;101237.47;6130059;23;20600;-73
2022/05/17 09:09:08;;;;;;;13.52;4.45;;;;;;;19.22;73.94;101237.75;6149371;23;19915;-72
2022/05/17 09:12:34;;;;;;;8.60;3.25;;;;;;;19.25;73.50;101234.84;6146951;23;20025;-73
2022/05/17 09:15:41;;;;;;;9.65;3.78;;;;;;;19.23;77.38;101236.78;6150053;23;20059;-72
2022/05/17 09:18:47;;;;;;;9.57;2.90;;;;;;;19.34;77.49;101235.13;6151126;23;20076;-73
2022/05/17 09:21:53;;;;;;;9.52;2.88;;;;;;;19.52;76.89;101238.97;6150612;23;20040;-72
2022/05/17 09:25:00;;;;;;;7.18;3.22;;;;;;;19.64;74.98;101230.06;6151392;23;20071;-72
2022/05/17 09:28:04;;;;;;;10.40;2.30;;;;;;;19.65;72.51;101237.06;6155639;23;20080;-73
2022/05/17 09:31:17;;;;;;;8.32;3.20;;;;;;;19.71;70.94;101233.91;6155764;23;20099;-72
2022/05/17 09:34:44;;;;;;;7.85;2.40;;;;;;;19.84;71.63;101232.94;6138046;23;20353;-72
2022/05/17 09:37:54;;;;;;;8.93;2.83;;;;;;;19.96;68.36;101235.44;6156214;23;20080;-72
2022/05/17 09:40:58;;;;;;;5.65;1.95;;;;;;;20.09;65.73;101240.63;6155490;23;20354;-72
2022/05/17 09:44:10;;;;;;;10.45;1.90;;;;;;;20.15;65.60;101240.13;6156030;23;20028;-72
2022/05/17 09:47:29;;;;;;;6.50;1.95;;;;;;;20.15;62.47;101237.47;6146167;23;20020;-72
2022/05/17 09:54:09;;;;;;;3.83;1.42;;;;;;;20.41;61.83;101230.00;6150197;23;20036;-72
2022/05/17 09:57:25;;;;;;;10.73;2.00;;;;;;;20.41;62.93;101229.16;6148344;23;20454;-73
2022/05/17 10:00:34;;;;;;;9.93;2.20;;;;;;;20.56;63.93;101235.91;6155286;23;20417;-72
2022/05/17 10:03:41;;;;;;;9.38;2.13;;;;;;;20.60;62.40;101225.88;6154662;23;20048;-72
2022/05/17 10:06:55;;;;;;;5.80;1.60;;;;;;;20.56;59.76;101227.94;6133896;23;20105;-72
2022/05/17 10:10:09;;;;;;;5.57;1.58;;;;;;;20.56;60.68;101227.94;6155548;23;20097;-72
2022/05/17 10:13:24;;;;;;;5.72;1.15;;;;;;;20.70;58.90;101223.28;6154121;23;20423;-72
2022/05/17 10:16:47;;;;;;;7.80;1.70;;;;;;;20.58;58.91;101218.03;6156190;23;20472;-72
2022/05/17 10:20:01;;;;;;;6.45;1.10;;;;;;;20.57;58.20;101219.00;6155482;23;20072;-73
2022/05/17 10:23:17;;;;;;;6.57;1.25;;;;;;;20.72;58.91;101216.03;6154624;23;20028;-72
2022/05/17 10:26:29;;;;;;;6.13;1.20;;;;;;;20.64;57.75;101209.56;6154550;23;20397;-73
2022/05/17 10:29:40;;;;;;;;;;;;;;;20.66;58.69;101202.28;6137445;23;20026;-72
2022/05/17 10:32:43;;;;;;;5.88;1.48;;;;;;;20.75;57.30;101202.50;6155538;23;19924;-73
2022/05/17 10:35:52;;;;;;;4.25;1.05;;;;;;;20.72;56.21;101205.41;6154860;23;20044;-73
2022/05/17 10:39:34;;;;;;;5.53;1.80;;;;;;;20.77;58.09;101200.53;6155366;23;20353;-73
2022/05/17 10:42:39;;;;;;;3.27;1.40;;;;;;;20.82;58.26;101201.00;6146362;23;20028;-73
2022/05/17 10:45:46;;;;;;;4.22;1.35;;;;;;;20.98;58.35;101196.03;6154484;23;20345;-73
2022/05/17 10:49:33;;;;;;;11.95;2.08;;;;;;;21.34;59.87;101201.81;6154292;23;20025;-73
2022/05/17 10:52:50;;;;;;;8.15;1.58;;;;;;;21.16;58.15;101190.13;6155043;23;20185;-73
2022/05/17 10:56:11;;;;;;;4.07;1.27;;;;;;;21.12;57.90;101187.75;6155558;23;20052;-73
2022/05/17 10:59:50;;;;;;;4.72;1.15;;;;;;;21.29;57.33;101188.09;6155062;23;20111;-73
2022/05/17 11:03:26;;;;;;;4.47;1.38;;;;;;;21.35;59.90;101171.63;6155980;23;20052;-73
2022/05/17 11:06:38;;;;;;;5.35;1.40;;;;;;;21.47;59.75;101167.03;6141173;23;20036;-73
2022/05/17 11:09:45;;;;;;;;;;;;;;;21.55;57.20;101173.38;6160761;23;20040;-72
2022/05/17 11:12:54;;;;;;;4.68;1.38;;;;;;;21.57;54.12;101165.28;6154584;23;19936;-72
2022/05/17 11:16:13;;;;;;;5.30;1.13;;;;;;;21.51;55.44;101163.97;6156748;23;20395;-72
2022/05/17 11:19:40;;;;;;;4.75;1.20;;;;;;;21.58;54.65;101164.28;6160367;23;20024;-72
2022/05/17 11:23:08;;;;;;;3.17;1.10;;;;;;;21.68;54.73;101164.31;6160511;23;20048;-72
2022/05/17 11:26:18;;;;;;;4.65;1.30;;;;;;;21.76;54.25;101153.78;6156821;23;20038;-72
2022/05/17 11:29:51;;;;;;;4.57;1.00;;;;;;;21.79;55.87;101156.19;6158521;23;20024;-72
2022/05/17 11:33:32;;;;;;;4.95;0.95;;;;;;;21.84;55.01;101140.66;6159575;23;20089;-71
2022/05/17 11:36:34;;;;;;;5.35;1.05;;;;;;;21.71;53.75;101151.56;6156048;23;20024;-73
2022/05/17 11:39:46;;;;;;;4.93;1.58;;;;;;;21.70;53.76;101149.06;6155489;23;20392;-72
2022/05/17 11:46:34;;;;;;;3.58;1.20;;;;;;;21.95;54.81;101135.22;6157444;23;20315;-72
2022/05/17 11:49:43;;;;;;;4.82;1.20;;;;;;;22.10;52.06;101134.78;6155213;23;20085;-72
2022/05/17 11:53:16;;;;;;;7.05;1.27;;;;;;;22.54;53.27;101127.22;6156355;23;20068;-72
2022/05/17 11:56:28;;;;;;;4.93;0.98;;;;;;;22.63;51.89;101119.19;6156444;23;20024;-72
2022/05/17 11:59:42;;;;;;;5.47;1.50;;;;;;;22.58;51.85;101128.59;6132474;23;20024;-73
2022/05/17 12:02:51;;;;;;;6.70;1.60;;;;;;;22.84;51.15;101118.97;6151785;23;20469;-72
2022/05/17 12:05:57;;;;;;;4.35;1.20;;;;;;;22.93;50.26;101112.81;6154045;23;20072;-72
2022/05/17 12:09:24;;;;;;;3.75;1.40;;;;;;;23.12;50.30;101113.72;6153618;23;20028;-73
2022/05/17 12:12:48;;;;;;;6.43;1.50;;;;;;;23.21;52.51;101108.34;6154210;23;20357;-73
2022/05/17 12:15:53;;;;;;;3.25;1.25;;;;;;;23.73;51.44;101099.75;6152075;23;20024;-74
2022/05/17 12:19:06;;;;;;;6.28;1.58;;;;;;;24.02;50.86;101098.69;6153991;23;20560;-73
2022/05/17 12:22:21;;;;;;;9.07;2.05;;;;;;;24.01;50.20;101092.50;6154473;23;20028;-74
2022/05/17 12:25:44;;;;;;;4.38;1.60;;;;;;;24.03;49.71;101087.88;6154873;23;20044;-74
2022/05/17 12:28:52;;;;;;;5.45;1.38;;;;;;;24.19;48.47;101084.50;6154612;23;20024;-73
2022/05/17 12:32:01;;;;;;;5.63;1.67;;;;;;;24.36;48.25;101086.28;6154960;23;20434;-74
2022/05/17 12:35:07;;;;;;;5.68;1.80;;;;;;;24.47;49.23;101084.34;6154883;23;20389;-74
2022/05/17 12:43:02;;;;;;;4.43;1.20;;;;;;;24.37;46.95;101082.59;6154555;23;20088;-74
2022/05/17 12:45:16;;;;;;;7.90;1.55;;;;;;;24.77;46.64;101078.53;6153354;23;20076;-74
2022/05/17 12:48:35;;;;;;;4.72;1.45;;;;;;;24.31;47.51;101080.56;6153960;23;20076;-74
2022/05/17 12:51:38;;;;;;;4.32;1.10;;;;;;;24.23;48.37;101074.31;6136404;23;20087;-74
2022/05/17 12:54:42;;;;;;;5.55;1.40;;;;;;;24.25;50.37;101067.84;6154991;23;20064;-75
2022/05/17 12:57:47;;;;;;;12.65;2.10;;;;;;;24.24;50.20;101063.47;6154568;23;20076;-75
2022/05/17 13:00:54;;;;;;;6.32;1.20;;;;;;;24.23;50.10;101063.63;6153393;23;20036;-75
2022/05/17 13:04:09;;;;;;;8.95;2.22;;;;;;;24.33;49.84;101069.72;6153794;23;20027;-75
2022/05/17 13:07:17;;;;;;;4.68;1.33;;;;;;;24.33;51.33;101065.19;6153559;23;20468;-74
2022/05/17 13:10:21;;;;;;;8.23;1.17;;;;;;;24.23;49.17;101058.28;6153641;23;20028;-74
2022/05/17 13:13:26;;;;;;;4.07;1.15;;;;;;;25.34;47.34;101047.69;6153258;23;20056;-75
2022/05/17 13:16:34;;;;;;;6.57;1.55;;;;;;;26.02;45.57;101047.44;6153235;23;20346;-75
2022/05/17 13:19:40;;;;;;;4.28;1.15;;;;;;;27.02;43.78;101034.44;6153250;23;20088;-74
2022/05/17 13:22:46;;;;;;;8.15;1.40;;;;;;;27.44;42.28;101035.94;6153416;23;20052;-75
2022/05/17 13:25:51;;;;;;;4.78;1.50;;;;;;;27.41;40.90;101040.78;6153317;23;20080;-75
2022/05/17 13:28:55;;;;;;;5.05;1.50;;;;;;;27.51;41.24;101028.81;6152739;23;20024;-75
2022/05/17 13:32:06;;;;;;;8.27;1.60;;;;;;;27.40;41.45;101034.59;6153040;23;20083;-75
2022/05/17 13:35:10;;;;;;;5.93;1.90;;;;;;;27.12;42.60;101035.09;6154004;23;20072;-74
2022/05/17 13:38:17;;;;;;;5.95;1.58;;;;;;;27.86;40.27;101031.94;6122753;23;20193;-73
2022/05/17 13:41:32;;;;;;;6.03;1.15;;;;;;;27.88;40.24;101043.34;6124364;23;20334;-72
2022/05/17 13:44:38;;;;;;;11.68;1.73;;;;;;;28.03;39.92;101038.00;6116253;23;20028;-72
2022/05/17 13:47:45;;;;;;;4.80;1.17;;;;;;;27.52;40.19;101038.53;6117248;23;20382;-72
2022/05/17 13:50:55;;;;;;;5.10;1.30;;;;;;;28.07;39.09;101033.09;6118194;23;20025;-72
2022/05/17 13:54:37;;;;;;;5.25;1.25;;;;;;;28.60;38.11;101034.75;6120398;23;20032;-72
2022/05/17 13:57:48;;;;;;;4.73;1.20;;;;;;;30.06;34.79;101028.28;6062422;23;20150;-72
2022/05/17 14:01:30;;;;;;;3.80;1.10;;;;;;;31.39;31.67;101020.88;6118786;23;20410;-72
2022/05/17 14:04:41;;;;;;;6.30;1.40;;;;;;;30.61;33.14;101020.38;6118960;23;20024;-73
2022/05/17 14:11:49;;;;;;;5.50;1.20;;;;;;;30.30;33.05;101008.13;6119289;23;20033;-72
2022/05/17 14:14:54;;;;;;;3.72;1.30;;;;;;;28.19;37.04;101010.97;6119297;23;20342;-73
2022/05/17 14:17:57;;;;;;;4.57;0.90;;;;;;;27.71;37.29;101017.59;6120896;23;20481;-73
2022/05/17 14:21:05;;;;;;;4.45;1.10;;;;;;;28.24;36.51;101013.13;6120472;23;20040;-72
2022/05/17 14:24:09;;;;;;;5.88;1.38;;;;;;;30.38;33.33;101003.59;6120158;23;20040;-72
2022/05/17 14:27:15;;;;;;;3.83;1.35;;;;;;;33.20;28.52;100995.19;6120059;23;20064;-72
2022/05/17 14:30:19;;;;;;;4.40;1.40;;;;;;;32.55;28.88;100995.28;6120263;23;20033;-72
2022/05/17 14:33:22;;;;;;;5.07;1.10;;;;;;;28.25;35.24;101012.09;6120367;23;20362;-72
2022/05/17 14:36:28;;;;;;;4.32;0.95;;;;;;;27.31;37.50;101006.13;6119592;23;20025;-72
2022/05/17 14:39:32;;;;;;;6.30;1.13;;;;;;;26.41;39.20;101014.53;6120242;23;20041;-72
2022/05/17 14:42:36;;;;;;;4.38;0.95;;;;;;;25.60;42.38;101013.59;6121395;23;20374;-72
2022/05/17 14:45:45;;;;;;;4.78;1.00;;;;;;;25.85;41.09;101010.94;6122342;23;20101;-72
2022/05/17 14:48:51;;;;;;;6.00;1.00;;;;;;;25.55;43.22;101007.03;6122581;23;20037;-72
2022/05/17 14:51:56;;;;;;;4.45;1.08;;;;;;;25.24;43.53;101005.84;6122526;23;20378;-72